Time;durP1;ratioP1;P1;durP2;ratioP2;P2;SDS_P1;SDS_P2;PMS_P1;PMS_P2;Temp;Humidity;BMP_temperature;BMP_pressure;BME280_temperature;BME280_humidity;BME280_pressure;Samples;Min_cycle;Max_cycle;Signal;HPM_P1;HPM_P2
2023/06/08 00:02:12;;;;;;;10.50;7.40;;;;;;;;;;5054315;28;20098;-77
2023/06/08 00:04:40;;;;;;;9.93;7.17;;;;;;;;;;5035644;28;20294;-77
2023/06/08 00:07:08;;;;;;;8.80;7.15;;;;;;;;;;5053890;28;20737;-77
2023/06/08 00:09:35;;;;;;;11.20;7.35;;;;;;;;;;5053529;28;20473;-77
2023/06/08 00:12:00;;;;;;;11.57;7.47;;;;;;;;;;5053738;28;20545;-77
2023/06/08 00:14:26;;;;;;;11.57;7.45;;;;;;;;;;5035438;28;20029;-77
2023/06/08 00:16:51;;;;;;;15.68;7.68;;;;;;;;;;5053584;28;20112;-77
2023/06/08 00:19:16;;;;;;;14.82;7.95;;;;;;;;;;5053285;28;20399;-77
2023/06/08 00:21:43;;;;;;;12.40;7.82;;;;;;;;;;5053186;28;20058;-77
2023/06/08 00:24:11;;;;;;;11.57;7.60;;;;;;;;;;5035846;28;20092;-77
2023/06/08 00:26:36;;;;;;;10.13;7.45;;;;;;;;;;5052782;28;20476;-77
2023/06/08 00:29:02;;;;;;;10.35;8.05;;;;;;;;;;5053150;28;20043;-77
2023/06/08 00:31:27;;;;;;;11.95;7.90;;;;;;;;;;5053347;28;20096;-77
2023/06/08 00:33:52;;;;;;;9.03;7.50;;;;;;;;;;5052911;28;20051;-77
2023/06/08 00:36:19;;;;;;;10.00;8.33;;;;;;;;;;5053106;28;20337;-77
2023/06/08 00:38:44;;;;;;;12.65;7.95;;;;;;;;;;5053031;28;20257;-77
2023/06/08 00:41:09;;;;;;;12.10;7.97;;;;;;;;;;5035136;28;20025;-77
2023/06/08 00:43:35;;;;;;;11.73;8.20;;;;;;;;;;5035349;28;20571;-77
2023/06/08 00:46:02;;;;;;;17.20;7.73;;;;;;;;;;5035097;28;20025;-77
2023/06/08 00:48:28;;;;;;;11.70;8.13;;;;;;;;;;5052966;28;20265;-77
2023/06/08 00:50:55;;;;;;;12.70;8.40;;;;;;;;;;5052845;28;20024;-77
2023/06/08 00:53:21;;;;;;;11.93;8.07;;;;;;;;;;5052824;28;20035;-76
2023/06/08 00:55:50;;;;;;;12.50;8.50;;;;;;;;;;5053448;28;20119;-77
2023/06/08 00:58:16;;;;;;;13.05;8.35;;;;;;;;;;5052799;28;20021;-77
2023/06/08 01:00:44;;;;;;;11.40;8.40;;;;;;;;;;5052860;28;20029;-77
2023/06/08 01:03:10;;;;;;;13.25;8.48;;;;;;;;;;5052682;28;20028;-76
2023/06/08 01:05:38;;;;;;;12.38;8.93;;;;;;;;;;5052793;28;20028;-76
2023/06/08 01:08:18;;;;;;;11.98;8.80;;;;;;;;;;5051991;28;20404;-77
2023/06/08 01:10:52;;;;;;;9.98;8.43;;;;;;;;;;5051679;28;20420;-77
2023/06/08 01:13:29;;;;;;;12.32;8.27;;;;;;;;;;5050721;28;20578;-77
2023/06/08 01:16:03;;;;;;;12.40;8.32;;;;;;;;;;5033920;28;20079;-76
2023/06/08 01:18:38;;;;;;;12.50;8.88;;;;;;;;;;5052954;28;20029;-77
2023/06/08 01:21:24;;;;;;;13.18;8.93;;;;;;;;;;5034922;28;20021;-76
2023/06/08 01:24:10;;;;;;;11.48;8.57;;;;;;;;;;5035160;28;20093;-76
2023/06/08 01:26:36;;;;;;;10.15;8.75;;;;;;;;;;5034796;28;20021;-76
2023/06/08 01:29:01;;;;;;;13.82;8.93;;;;;;;;;;5034697;28;20025;-77
2023/06/08 01:31:26;;;;;;;14.30;8.90;;;;;;;;;;5034733;28;20540;-77
2023/06/08 01:33:52;;;;;;;11.30;8.67;;;;;;;;;;5052403;28;20835;-76
2023/06/08 01:36:23;;;;;;;11.52;8.40;;;;;;;;;;5052967;28;20810;-76
2023/06/08 01:39:06;;;;;;;12.52;9.30;;;;;;;;;;5055016;28;20021;-76
2023/06/08 01:41:34;;;;;;;11.63;8.88;;;;;;;;;;5038429;28;20048;-76
2023/06/08 01:44:01;;;;;;;12.00;9.15;;;;;;;;;;5056266;28;20480;-76
2023/06/08 01:46:30;;;;;;;11.52;8.77;;;;;;;;;;5038367;28;20029;-77
2023/06/08 01:48:58;;;;;;;11.95;8.73;;;;;;;;;;5056162;28;20037;-77
2023/06/08 01:51:24;;;;;;;13.15;8.95;;;;;;;;;;5056155;28;20043;-76
2023/06/08 01:53:59;;;;;;;11.38;9.18;;;;;;;;;;5056177;28;20028;-77
2023/06/08 01:56:30;;;;;;;13.15;9.10;;;;;;;;;;5038098;28;20492;-77
2023/06/08 01:58:55;;;;;;;11.25;8.65;;;;;;;;;;5038118;28;20032;-76
2023/06/08 02:01:21;;;;;;;12.13;8.73;;;;;;;;;;5056136;28;20029;-76
2023/06/08 02:03:46;;;;;;;12.40;8.80;;;;;;;;;;5056147;28;20021;-76
2023/06/08 02:06:11;;;;;;;15.47;9.37;;;;;;;;;;5037986;28;20261;-76
2023/06/08 02:08:36;;;;;;;11.17;8.50;;;;;;;;;;5055774;28;20254;-76
2023/06/08 02:11:01;;;;;;;13.60;8.67;;;;;;;;;;5057005;28;20285;-77
2023/06/08 02:13:27;;;;;;;10.90;8.73;;;;;;;;;;5058200;28;20274;-77
2023/06/08 02:15:52;;;;;;;11.40;9.10;;;;;;;;;;5058961;28;20261;-78
2023/06/08 02:18:19;;;;;;;12.15;8.55;;;;;;;;;;5054620;28;20262;-77
2023/06/08 02:20:44;;;;;;;12.07;9.10;;;;;;;;;;5054235;28;20472;-77
2023/06/08 02:23:09;;;;;;;12.32;8.95;;;;;;;;;;5055606;28;20078;-77
2023/06/08 02:25:35;;;;;;;13.80;9.20;;;;;;;;;;5036806;28;20036;-79
2023/06/08 02:28:00;;;;;;;14.75;9.40;;;;;;;;;;5054674;28;20021;-77
2023/06/08 02:30:26;;;;;;;13.43;9.30;;;;;;;;;;5036961;28;20492;-78
2023/06/08 02:32:53;;;;;;;12.65;8.98;;;;;;;;;;5037386;28;20025;-77
2023/06/08 02:35:18;;;;;;;13.68;9.27;;;;;;;;;;5056019;28;20028;-77
2023/06/08 02:37:43;;;;;;;13.07;9.27;;;;;;;;;;5055341;28;20559;-77
2023/06/08 02:40:09;;;;;;;16.55;9.68;;;;;;;;;;5037322;28;20556;-77
2023/06/08 02:42:35;;;;;;;12.98;9.05;;;;;;;;;;5055217;28;20399;-77
2023/06/08 02:45:00;;;;;;;14.40;10.02;;;;;;;;;;5055110;28;20377;-77
2023/06/08 02:47:25;;;;;;;17.70;10.07;;;;;;;;;;5055091;28;20044;-77
2023/06/08 02:49:50;;;;;;;11.13;9.20;;;;;;;;;;5054681;28;20254;-77
2023/06/08 02:52:15;;;;;;;11.73;9.13;;;;;;;;;;5055197;28;20365;-77
2023/06/08 02:54:41;;;;;;;15.23;9.40;;;;;;;;;;5036916;28;20325;-77
2023/06/08 02:57:06;;;;;;;12.73;9.03;;;;;;;;;;5054936;28;20250;-77
2023/06/08 02:59:32;;;;;;;17.00;9.77;;;;;;;;;;5037563;28;20262;-77
2023/06/08 03:01:58;;;;;;;16.50;9.77;;;;;;;;;;5054948;28;20029;-77
2023/06/08 03:04:25;;;;;;;15.55;9.93;;;;;;;;;;5054677;28;20537;-77
2023/06/08 03:06:56;;;;;;;11.98;9.45;;;;;;;;;;5054915;28;20491;-77
2023/06/08 03:09:24;;;;;;;11.65;9.43;;;;;;;;;;5054926;28;20115;-77
2023/06/08 03:11:51;;;;;;;12.00;9.93;;;;;;;;;;5054687;28;20051;-77
2023/06/08 03:14:18;;;;;;;12.43;9.60;;;;;;;;;;5054845;28;20112;-77
2023/06/08 03:16:44;;;;;;;13.55;9.10;;;;;;;;;;5054547;28;20032;-77
2023/06/08 03:19:10;;;;;;;14.45;9.60;;;;;;;;;;5054528;28;20025;-77
2023/06/08 03:21:36;;;;;;;14.65;10.05;;;;;;;;;;5055703;28;20021;-78
2023/06/08 03:24:04;;;;;;;14.50;10.02;;;;;;;;;;5036689;28;20025;-76
2023/06/08 03:26:30;;;;;;;11.35;9.15;;;;;;;;;;5036798;28;20484;-77
2023/06/08 03:28:55;;;;;;;14.40;9.93;;;;;;;;;;5054370;28;20108;-77
2023/06/08 03:31:20;;;;;;;15.20;9.88;;;;;;;;;;5036463;28;20748;-77
2023/06/08 03:33:46;;;;;;;12.67;10.20;;;;;;;;;;5036235;28;20443;-77
2023/06/08 03:36:11;;;;;;;13.95;9.60;;;;;;;;;;5036509;28;20262;-78
2023/06/08 03:38:36;;;;;;;11.87;9.83;;;;;;;;;;5054384;28;20476;-78
2023/06/08 03:41:02;;;;;;;12.07;9.93;;;;;;;;;;5037085;28;20362;-78
2023/06/08 03:43:27;;;;;;;12.10;9.73;;;;;;;;;;5036477;28;20289;-78
2023/06/08 03:45:52;;;;;;;13.10;9.57;;;;;;;;;;5054748;28;20262;-78
2023/06/08 03:48:17;;;;;;;13.45;9.73;;;;;;;;;;5054277;28;20254;-77
2023/06/08 03:50:43;;;;;;;15.10;10.03;;;;;;;;;;5054763;28;20075;-78
2023/06/08 03:53:10;;;;;;;12.38;10.02;;;;;;;;;;5054173;28;20360;-78
2023/06/08 03:55:36;;;;;;;11.73;9.45;;;;;;;;;;5054356;28;20441;-78
2023/06/08 03:58:01;;;;;;;14.93;10.07;;;;;;;;;;5055191;28;20100;-78
2023/06/08 04:00:26;;;;;;;18.00;10.53;;;;;;;;;;5054030;28;20116;-78
2023/06/08 04:02:52;;;;;;;12.63;9.95;;;;;;;;;;5053644;28;20339;-77
2023/06/08 04:05:17;;;;;;;16.42;9.68;;;;;;;;;;5053657;28;20048;-76
2023/06/08 04:07:42;;;;;;;12.03;10.03;;;;;;;;;;5053520;28;20027;-77
2023/06/08 04:10:08;;;;;;;11.50;10.05;;;;;;;;;;5053526;28;20250;-76
2023/06/08 04:12:33;;;;;;;11.25;9.82;;;;;;;;;;5053433;28;20455;-77
2023/06/08 04:14:59;;;;;;;14.02;10.10;;;;;;;;;;5053783;28;20112;-77
2023/06/08 04:17:27;;;;;;;18.48;10.30;;;;;;;;;;5036129;28;20028;-77
2023/06/08 04:19:52;;;;;;;14.85;10.27;;;;;;;;;;5053308;28;20395;-77
2023/06/08 04:22:18;;;;;;;10.88;9.38;;;;;;;;;;5053370;28;20023;-77
2023/06/08 04:24:43;;;;;;;16.23;10.10;;;;;;;;;;5053152;28;20116;-77
2023/06/08 04:27:08;;;;;;;13.20;10.43;;;;;;;;;;5035584;28;20301;-78
2023/06/08 04:29:33;;;;;;;12.13;10.48;;;;;;;;;;5053319;28;20625;-78
2023/06/08 04:31:58;;;;;;;15.43;10.93;;;;;;;;;;5053971;28;20060;-77
2023/06/08 04:34:24;;;;;;;11.27;9.97;;;;;;;;;;5036024;28;20304;-78
2023/06/08 04:36:50;;;;;;;15.85;10.50;;;;;;;;;;5053770;28;20321;-77
2023/06/08 04:39:15;;;;;;;13.10;10.15;;;;;;;;;;5035794;28;20041;-77
2023/06/08 04:41:41;;;;;;;13.60;10.02;;;;;;;;;;5053183;28;20035;-77
2023/06/08 04:44:08;;;;;;;13.98;11.05;;;;;;;;;;5053104;28;20017;-77
2023/06/08 04:46:37;;;;;;;15.52;11.38;;;;;;;;;;5053548;28;20385;-78
2023/06/08 04:49:02;;;;;;;14.60;11.45;;;;;;;;;;5052942;28;20070;-78
2023/06/08 04:51:29;;;;;;;17.27;11.45;;;;;;;;;;5052987;28;20108;-77
2023/06/08 04:53:59;;;;;;;21.10;12.10;;;;;;;;;;5052890;28;20048;-77
2023/06/08 04:56:29;;;;;;;19.20;13.05;;;;;;;;;;5035146;28;20032;-77
2023/06/08 04:58:55;;;;;;;14.27;12.18;;;;;;;;;;5035307;28;20066;-78
2023/06/08 05:01:20;;;;;;;15.38;12.50;;;;;;;;;;5052833;28;20075;-77
2023/06/08 05:03:46;;;;;;;18.27;12.60;;;;;;;;;;5052785;28;20025;-77
2023/06/08 05:06:12;;;;;;;15.98;12.32;;;;;;;;;;5035569;28;20035;-77
2023/06/08 05:08:37;;;;;;;14.98;12.73;;;;;;;;;;5052745;28;20111;-77
2023/06/08 05:11:02;;;;;;;15.37;12.73;;;;;;;;;;5052884;28;20434;-77
2023/06/08 05:13:27;;;;;;;18.08;12.73;;;;;;;;;;5038181;28;20336;-77
2023/06/08 05:15:57;;;;;;;15.97;13.13;;;;;;;;;;5056666;28;20049;-77
2023/06/08 05:18:23;;;;;;;18.45;14.02;;;;;;;;;;5056893;28;20258;-77
2023/06/08 05:20:48;;;;;;;21.40;15.27;;;;;;;;;;5057199;28;20070;-77
2023/06/08 05:23:13;;;;;;;22.13;15.65;;;;;;;;;;5056813;28;20261;-78
2023/06/08 05:25:38;;;;;;;18.73;15.47;;;;;;;;;;5056631;28;20500;-77
2023/06/08 05:28:04;;;;;;;20.40;16.43;;;;;;;;;;5056940;28;20763;-78
2023/06/08 05:30:30;;;;;;;22.02;14.88;;;;;;;;;;5056899;28;20744;-78
2023/06/08 05:32:55;;;;;;;21.60;14.82;;;;;;;;;;5057151;28;20055;-77
2023/06/08 05:35:21;;;;;;;20.67;15.47;;;;;;;;;;5056380;28;20484;-77
2023/06/08 05:37:46;;;;;;;24.05;16.27;;;;;;;;;;5056910;28;20887;-76
2023/06/08 05:40:12;;;;;;;23.10;16.63;;;;;;;;;;5056482;28;20430;-76
2023/06/08 05:42:37;;;;;;;24.23;16.58;;;;;;;;;;5055342;28;20629;-76
2023/06/08 05:45:02;;;;;;;20.40;15.73;;;;;;;;;;5055146;28;20488;-76
2023/06/08 05:47:28;;;;;;;19.92;16.52;;;;;;;;;;5056001;28;20763;-77
2023/06/08 05:49:53;;;;;;;17.80;15.07;;;;;;;;;;5056010;28;20421;-77
2023/06/08 05:52:18;;;;;;;18.87;15.97;;;;;;;;;;5055943;28;20629;-77
2023/06/08 05:54:43;;;;;;;18.40;14.80;;;;;;;;;;5055638;28;20615;-77
2023/06/08 05:57:09;;;;;;;18.98;14.60;;;;;;;;;;5056018;28;20028;-77
2023/06/08 05:59:34;;;;;;;17.97;14.33;;;;;;;;;;5056070;28;20517;-76
2023/06/08 06:01:59;;;;;;;18.88;14.27;;;;;;;;;;5055853;28;20820;-75
2023/06/08 06:04:24;;;;;;;19.27;14.30;;;;;;;;;;5056461;28;20075;-75
2023/06/08 06:06:50;;;;;;;18.80;14.10;;;;;;;;;;5055717;28;20250;-77
2023/06/08 06:09:15;;;;;;;22.67;14.65;;;;;;;;;;5055579;28;20266;-77
2023/06/08 06:11:40;;;;;;;17.25;14.43;;;;;;;;;;5038164;28;20031;-75
2023/06/08 06:14:05;;;;;;;17.10;14.38;;;;;;;;;;5055899;28;20029;-76
2023/06/08 06:16:31;;;;;;;17.57;14.07;;;;;;;;;;5055521;28;20021;-75
2023/06/08 06:19:00;;;;;;;17.93;13.07;;;;;;;;;;5055501;28;20258;-75
2023/06/08 06:21:25;;;;;;;18.50;13.27;;;;;;;;;;5055436;28;20344;-75
2023/06/08 06:23:50;;;;;;;17.70;13.68;;;;;;;;;;5036556;28;20108;-76
2023/06/08 06:26:16;;;;;;;17.77;12.70;;;;;;;;;;5055340;28;20025;-75
2023/06/08 06:28:41;;;;;;;21.65;13.52;;;;;;;;;;5055373;28;20329;-76
2023/06/08 06:31:06;;;;;;;16.35;12.25;;;;;;;;;;5055224;28;20052;-77
2023/06/08 06:33:32;;;;;;;19.42;12.50;;;;;;;;;;5055361;28;20029;-75
2023/06/08 06:35:57;;;;;;;15.27;12.68;;;;;;;;;;5055194;28;20021;-75
2023/06/08 06:38:23;;;;;;;16.65;12.63;;;;;;;;;;5057008;28;20020;-77
2023/06/08 06:40:52;;;;;;;15.88;12.65;;;;;;;;;;5055524;28;20163;-76
2023/06/08 06:43:17;;;;;;;16.10;12.23;;;;;;;;;;5036958;28;20021;-75
2023/06/08 06:45:42;;;;;;;15.75;11.88;;;;;;;;;;5055231;28;20029;-76
2023/06/08 06:48:08;;;;;;;16.35;12.25;;;;;;;;;;5054789;28;20495;-75
2023/06/08 06:50:33;;;;;;;17.67;12.67;;;;;;;;;;5055039;28;20052;-75
2023/06/08 06:52:58;;;;;;;18.43;12.30;;;;;;;;;;5054751;28;20274;-76
2023/06/08 06:55:23;;;;;;;17.65;13.27;;;;;;;;;;5054821;28;20311;-75
2023/06/08 06:57:49;;;;;;;12.73;11.40;;;;;;;;;;5054959;28;20501;-76
2023/06/08 07:00:14;;;;;;;14.73;11.93;;;;;;;;;;5054637;28;20021;-76
2023/06/08 07:02:40;;;;;;;17.42;12.50;;;;;;;;;;5055184;28;20294;-76
2023/06/08 07:05:07;;;;;;;19.27;12.55;;;;;;;;;;5037956;28;20056;-76
2023/06/08 07:07:36;;;;;;;19.17;12.60;;;;;;;;;;5055262;28;20481;-76
2023/06/08 07:10:02;;;;;;;15.45;12.20;;;;;;;;;;5055391;28;20021;-76
2023/06/08 07:12:29;;;;;;;18.05;12.15;;;;;;;;;;5054768;28;20036;-75
2023/06/08 07:14:54;;;;;;;19.73;11.73;;;;;;;;;;5037976;28;20028;-77
2023/06/08 07:17:19;;;;;;;17.77;11.60;;;;;;;;;;5055983;28;20029;-77
2023/06/08 07:19:46;;;;;;;18.67;12.37;;;;;;;;;;5055919;28;20029;-77
2023/06/08 07:22:11;;;;;;;15.43;11.95;;;;;;;;;;5037945;28;20349;-77
2023/06/08 07:24:36;;;;;;;17.27;10.98;;;;;;;;;;5038720;28;20059;-75
2023/06/08 07:27:02;;;;;;;12.63;11.13;;;;;;;;;;5054672;28;20036;-76
2023/06/08 07:29:27;;;;;;;13.77;11.77;;;;;;;;;;5054190;28;20270;-75
2023/06/08 07:31:52;;;;;;;13.23;11.20;;;;;;;;;;5055421;28;20048;-77
2023/06/08 07:34:17;;;;;;;16.67;11.27;;;;;;;;;;5055556;28;20277;-76
2023/06/08 07:36:43;;;;;;;15.27;10.30;;;;;;;;;;5055440;28;20028;-75
2023/06/08 07:39:08;;;;;;;13.73;11.40;;;;;;;;;;5054829;28;20264;-78
2023/06/08 07:41:34;;;;;;;16.65;11.02;;;;;;;;;;5037171;28;20254;-76
2023/06/08 07:43:59;;;;;;;14.85;11.38;;;;;;;;;;5055987;28;20029;-80
2023/06/08 07:46:25;;;;;;;15.07;11.35;;;;;;;;;;5055071;28;20032;-77
2023/06/08 07:48:50;;;;;;;11.93;10.03;;;;;;;;;;5054332;28;20099;-77
2023/06/08 07:51:15;;;;;;;15.53;10.77;;;;;;;;;;5056212;28;20262;-76
2023/06/08 07:53:41;;;;;;;16.08;11.00;;;;;;;;;;5055748;28;20334;-76
2023/06/08 07:56:06;;;;;;;17.92;11.27;;;;;;;;;;5036184;28;20391;-77
2023/06/08 07:58:33;;;;;;;15.57;10.45;;;;;;;;;;5053977;28;20107;-75
2023/06/08 08:00:59;;;;;;;15.40;12.00;;;;;;;;;;5056061;28;20025;-75
2023/06/08 08:03:24;;;;;;;15.13;11.38;;;;;;;;;;5037149;28;20020;-76
2023/06/08 08:05:49;;;;;;;16.23;10.93;;;;;;;;;;5053723;28;20074;-77
2023/06/08 08:08:15;;;;;;;15.05;11.23;;;;;;;;;;5054609;28;20016;-74
2023/06/08 08:10:41;;;;;;;13.45;11.10;;;;;;;;;;5035713;28;20025;-76
2023/06/08 08:13:07;;;;;;;13.93;10.23;;;;;;;;;;5053677;28;20032;-76
2023/06/08 08:15:32;;;;;;;13.18;10.32;;;;;;;;;;5035910;28;20454;-76
2023/06/08 08:17:57;;;;;;;12.98;10.60;;;;;;;;;;5035948;28;20124;-75
2023/06/08 08:20:22;;;;;;;18.17;11.57;;;;;;;;;;5053947;28;20051;-77
2023/06/08 08:22:48;;;;;;;15.47;10.63;;;;;;;;;;5053844;28;20269;-77
2023/06/08 08:25:13;;;;;;;14.67;11.43;;;;;;;;;;5053411;28;20273;-77
2023/06/08 08:27:38;;;;;;;13.10;10.03;;;;;;;;;;5053328;28;20258;-77
2023/06/08 08:30:04;;;;;;;14.07;9.77;;;;;;;;;;5053445;28;20286;-77
2023/06/08 08:32:29;;;;;;;17.38;9.00;;;;;;;;;;5053383;28;20446;-77
2023/06/08 08:34:55;;;;;;;11.43;9.13;;;;;;;;;;5053621;28;20100;-77
2023/06/08 08:37:20;;;;;;;12.37;8.90;;;;;;;;;;5035760;28;20028;-77
2023/06/08 08:39:46;;;;;;;12.63;9.30;;;;;;;;;;5035741;28;20250;-77
2023/06/08 08:42:13;;;;;;;13.85;9.90;;;;;;;;;;5053560;28;20021;-77
2023/06/08 08:44:39;;;;;;;11.70;9.35;;;;;;;;;;5035637;28;20036;-77
2023/06/08 08:47:05;;;;;;;12.32;10.32;;;;;;;;;;5052874;28;20029;-77
2023/06/08 08:49:36;;;;;;;13.50;9.75;;;;;;;;;;5035847;28;20025;-78
2023/06/08 08:52:02;;;;;;;11.05;9.35;;;;;;;;;;5036368;28;20056;-76
2023/06/08 08:54:31;;;;;;;14.38;9.38;;;;;;;;;;5035138;28;20080;-77
2023/06/08 08:56:57;;;;;;;12.35;9.02;;;;;;;;;;5053639;28;20040;-77
2023/06/08 08:59:24;;;;;;;13.60;9.38;;;;;;;;;;5054445;28;20031;-78
2023/06/08 09:01:49;;;;;;;12.55;9.48;;;;;;;;;;5054956;28;20025;-77
2023/06/08 09:04:14;;;;;;;12.35;8.88;;;;;;;;;;5052946;28;20040;-77
2023/06/08 09:06:47;;;;;;;12.93;9.30;;;;;;;;;;5053651;28;20063;-77
2023/06/08 09:09:12;;;;;;;12.18;8.70;;;;;;;;;;5053159;28;20415;-77
2023/06/08 09:11:56;;;;;;;12.63;9.15;;;;;;;;;;5052949;28;20488;-76
2023/06/08 09:14:21;;;;;;;12.48;8.90;;;;;;;;;;5052858;28;20377;-77
2023/06/08 09:16:47;;;;;;;11.60;8.67;;;;;;;;;;5036285;28;20044;-80
2023/06/08 09:19:13;;;;;;;11.32;8.82;;;;;;;;;;5054157;28;20261;-83
2023/06/08 09:21:43;;;;;;;14.20;8.73;;;;;;;;;;5037751;28;20549;-82
2023/06/08 09:24:14;;;;;;;17.45;8.65;;;;;;;;;;5038404;28;20035;-79
2023/06/08 09:26:50;;;;;;;10.77;8.60;;;;;;;;;;5038131;28;20025;-77
2023/06/08 09:29:32;;;;;;;12.45;8.25;;;;;;;;;;5053531;28;20056;-77
2023/06/08 09:31:59;;;;;;;10.45;8.65;;;;;;;;;;5055070;28;20031;-77
2023/06/08 09:34:25;;;;;;;14.65;9.18;;;;;;;;;;5035606;28;20025;-77
2023/06/08 09:36:52;;;;;;;9.18;8.05;;;;;;;;;;5052616;28;20604;-78
2023/06/08 09:39:17;;;;;;;14.65;8.43;;;;;;;;;;5034686;28;20071;-77
2023/06/08 09:41:55;;;;;;;13.32;7.97;;;;;;;;;;5053422;28;20025;-76
2023/06/08 09:44:21;;;;;;;9.50;7.82;;;;;;;;;;5054734;28;20435;-77
2023/06/08 09:46:46;;;;;;;9.47;8.00;;;;;;;;;;5055381;28;20036;-77
2023/06/08 09:49:15;;;;;;;10.37;7.50;;;;;;;;;;5036184;28;20270;-77
2023/06/08 09:51:47;;;;;;;8.63;6.90;;;;;;;;;;5055436;28;20351;-77
2023/06/08 09:54:18;;;;;;;8.45;6.53;;;;;;;;;;5037178;28;20044;-77
2023/06/08 09:56:52;;;;;;;11.68;7.43;;;;;;;;;;5037706;28;20082;-77
2023/06/08 09:59:20;;;;;;;10.27;6.93;;;;;;;;;;5056675;28;20380;-77
2023/06/08 10:01:54;;;;;;;10.57;7.30;;;;;;;;;;5059346;28;20090;-77
2023/06/08 10:04:40;;;;;;;7.80;6.40;;;;;;;;;;5041156;28;20102;-78
2023/06/08 10:07:10;;;;;;;10.35;7.28;;;;;;;;;;5058107;28;20099;-77
2023/06/08 10:09:41;;;;;;;11.98;7.28;;;;;;;;;;5059107;28;20040;-77
2023/06/08 10:12:07;;;;;;;9.07;6.78;;;;;;;;;;5058429;28;20119;-77
2023/06/08 10:14:33;;;;;;;10.05;7.65;;;;;;;;;;5057440;28;20067;-76
2023/06/08 10:16:59;;;;;;;11.10;7.05;;;;;;;;;;5056550;28;20479;-76
2023/06/08 10:19:25;;;;;;;8.35;6.75;;;;;;;;;;5056834;28;20472;-75
2023/06/08 10:21:52;;;;;;;10.75;6.68;;;;;;;;;;5040124;28;20119;-77
2023/06/08 10:24:19;;;;;;;9.90;6.82;;;;;;;;;;5057038;28;20424;-77
2023/06/08 10:26:46;;;;;;;11.38;6.63;;;;;;;;;;5057930;28;20484;-77
2023/06/08 10:29:11;;;;;;;8.95;6.13;;;;;;;;;;5058629;28;20036;-77
2023/06/08 10:31:41;;;;;;;8.55;5.60;;;;;;;;;;5058311;28;20025;-77
2023/06/08 10:34:12;;;;;;;9.77;6.35;;;;;;;;;;5057699;28;20407;-77
2023/06/08 10:36:40;;;;;;;10.30;6.32;;;;;;;;;;5058364;28;20112;-77
2023/06/08 10:39:10;;;;;;;10.43;5.82;;;;;;;;;;5040255;28;20025;-78
2023/06/08 10:41:39;;;;;;;8.25;5.75;;;;;;;;;;5041514;28;20017;-77
2023/06/08 10:44:05;;;;;;;6.57;5.60;;;;;;;;;;5058156;28;20059;-77
2023/06/08 10:46:42;;;;;;;7.90;5.93;;;;;;;;;;5057133;28;20098;-78
2023/06/08 10:49:08;;;;;;;8.10;5.60;;;;;;;;;;5057418;28;20426;-78
2023/06/08 10:51:43;;;;;;;9.63;5.60;;;;;;;;;;5039933;28;20090;-77
2023/06/08 10:54:09;;;;;;;5.75;5.15;;;;;;;;;;5039719;28;20025;-77
2023/06/08 10:56:55;;;;;;;8.77;5.20;;;;;;;;;;5057116;28;20545;-77
2023/06/08 10:59:36;;;;;;;8.18;5.10;;;;;;;;;;5057131;28;20036;-78
2023/06/08 11:02:04;;;;;;;5.95;5.15;;;;;;;;;;5037765;28;20032;-77
2023/06/08 11:04:30;;;;;;;7.05;4.97;;;;;;;;;;5056693;28;20017;-80
2023/06/08 11:07:06;;;;;;;7.03;5.63;;;;;;;;;;5056509;28;20029;-76
2023/06/08 11:09:33;;;;;;;7.35;5.28;;;;;;;;;;5055044;28;20394;-76
2023/06/08 11:11:59;;;;;;;11.18;5.88;;;;;;;;;;5055405;28;20399;-76
2023/06/08 11:14:25;;;;;;;8.43;5.28;;;;;;;;;;5055266;28;20032;-73
2023/06/08 11:16:52;;;;;;;13.68;5.90;;;;;;;;;;5056021;28;20024;-74
2023/06/08 11:19:19;;;;;;;14.65;6.57;;;;;;;;;;5055613;28;20040;-74
2023/06/08 11:21:46;;;;;;;7.20;5.15;;;;;;;;;;5055742;28;20032;-74
2023/06/08 11:24:13;;;;;;;6.72;5.45;;;;;;;;;;5055014;28;20039;-74
2023/06/08 11:26:38;;;;;;;6.55;5.25;;;;;;;;;;5055610;28;20036;-74
2023/06/08 11:29:04;;;;;;;6.97;5.60;;;;;;;;;;5055251;28;20025;-74
2023/06/08 11:31:39;;;;;;;10.07;5.53;;;;;;;;;;5054785;28;20258;-72
2023/06/08 11:34:05;;;;;;;15.82;7.03;;;;;;;;;;5054740;28;20509;-74
2023/06/08 11:36:30;;;;;;;10.35;6.15;;;;;;;;;;5037487;28;20113;-74
2023/06/08 11:38:56;;;;;;;12.43;6.38;;;;;;;;;;5055099;28;20503;-74
2023/06/08 11:41:22;;;;;;;9.02;6.47;;;;;;;;;;5055296;28;20055;-74
2023/06/08 11:43:49;;;;;;;9.75;6.30;;;;;;;;;;5037029;28;20029;-74
2023/06/08 11:46:15;;;;;;;9.07;6.72;;;;;;;;;;5055081;28;20025;-74
2023/06/08 11:48:40;;;;;;;14.02;6.90;;;;;;;;;;5055405;28;20036;-75
2023/06/08 11:51:07;;;;;;;10.38;7.20;;;;;;;;;;5055114;28;20025;-75
2023/06/08 11:53:32;;;;;;;10.52;6.72;;;;;;;;;;5055144;28;20025;-73
2023/06/08 11:55:58;;;;;;;10.55;6.65;;;;;;;;;;5037327;28;20023;-73
2023/06/08 11:58:26;;;;;;;9.63;6.60;;;;;;;;;;5054888;28;20411;-73
2023/06/08 12:01:02;;;;;;;9.18;6.28;;;;;;;;;;5055259;28;20114;-75
2023/06/08 12:03:31;;;;;;;8.50;6.78;;;;;;;;;;5036773;28;20491;-72
2023/06/08 12:05:57;;;;;;;11.00;6.30;;;;;;;;;;5036147;28;20028;-82
2023/06/08 12:08:22;;;;;;;10.07;6.82;;;;;;;;;;5037947;28;20060;-73
2023/06/08 12:10:48;;;;;;;8.15;6.95;;;;;;;;;;5054771;28;20035;-75
2023/06/08 12:13:22;;;;;;;10.95;6.93;;;;;;;;;;5054351;28;20067;-75
2023/06/08 12:15:50;;;;;;;14.68;7.32;;;;;;;;;;5055810;28;20418;-75
2023/06/08 12:18:17;;;;;;;9.60;7.35;;;;;;;;;;5055767;28;20024;-75
2023/06/08 12:20:44;;;;;;;9.35;7.07;;;;;;;;;;5056121;28;20025;-79
2023/06/08 12:23:11;;;;;;;9.02;7.25;;;;;;;;;;5038047;28;20039;-76
2023/06/08 12:25:37;;;;;;;12.50;7.20;;;;;;;;;;5039316;28;20117;-76
2023/06/08 12:28:03;;;;;;;15.98;6.70;;;;;;;;;;5056862;28;20072;-78
2023/06/08 12:30:28;;;;;;;10.10;7.78;;;;;;;;;;5056031;28;20032;-76
2023/06/08 12:32:55;;;;;;;9.10;6.33;;;;;;;;;;5055942;28;20031;-77
2023/06/08 12:35:21;;;;;;;8.60;7.13;;;;;;;;;;5037955;28;20402;-77
2023/06/08 12:37:48;;;;;;;8.40;7.03;;;;;;;;;;5038627;28;20020;-76
2023/06/08 12:40:20;;;;;;;7.85;6.40;;;;;;;;;;5056114;28;20052;-78
2023/06/08 12:42:49;;;;;;;8.23;6.00;;;;;;;;;;5038575;28;20029;-76
2023/06/08 12:45:21;;;;;;;11.02;6.72;;;;;;;;;;5038762;28;20103;-76
2023/06/08 12:47:46;;;;;;;8.32;6.68;;;;;;;;;;5056604;28;20036;-77
2023/06/08 12:50:12;;;;;;;11.27;6.55;;;;;;;;;;5056480;28;20021;-78
2023/06/08 12:52:38;;;;;;;10.05;5.75;;;;;;;;;;5055899;28;20029;-78
2023/06/08 12:55:05;;;;;;;9.48;5.65;;;;;;;;;;5055190;28;20522;-76
2023/06/08 12:57:30;;;;;;;8.07;5.50;;;;;;;;;;5056799;28;20103;-75
2023/06/08 12:59:56;;;;;;;7.30;4.77;;;;;;;;;;5055834;28;20099;-76
2023/06/08 13:02:21;;;;;;;9.77;5.40;;;;;;;;;;5055230;28;20262;-79
2023/06/08 13:04:46;;;;;;;7.55;4.30;;;;;;;;;;5054568;28;20293;-76
2023/06/08 13:07:11;;;;;;;9.87;4.63;;;;;;;;;;5054379;28;20033;-76
2023/06/08 13:09:39;;;;;;;8.45;4.68;;;;;;;;;;5054692;28;20028;-76
2023/06/08 13:12:04;;;;;;;9.57;4.70;;;;;;;;;;5054156;28;20027;-75
2023/06/08 13:14:33;;;;;;;8.13;4.22;;;;;;;;;;5053161;28;20117;-75
2023/06/08 13:16:58;;;;;;;6.07;4.65;;;;;;;;;;5053014;28;20021;-75
2023/06/08 13:19:23;;;;;;;7.93;4.72;;;;;;;;;;5053481;28;20391;-74
2023/06/08 13:21:48;;;;;;;11.63;5.00;;;;;;;;;;5053388;28;20070;-74
2023/06/08 13:24:14;;;;;;;8.63;4.30;;;;;;;;;;5053834;28;20025;-77
2023/06/08 13:26:39;;;;;;;7.93;4.80;;;;;;;;;;5054519;28;20365;-75
2023/06/08 13:29:05;;;;;;;7.75;4.43;;;;;;;;;;5053444;28;20082;-72
2023/06/08 13:31:30;;;;;;;6.72;4.10;;;;;;;;;;5035798;28;20024;-78
2023/06/08 13:33:56;;;;;;;6.60;4.17;;;;;;;;;;5055832;28;20036;-74
2023/06/08 13:36:21;;;;;;;7.22;4.20;;;;;;;;;;5040526;28;20254;-74
2023/06/08 13:38:46;;;;;;;9.43;3.88;;;;;;;;;;5058076;28;20025;-75
2023/06/08 13:41:12;;;;;;;7.67;4.27;;;;;;;;;;5057903;28;20028;-75
2023/06/08 13:43:37;;;;;;;5.68;4.20;;;;;;;;;;5057873;28;20254;-75
2023/06/08 13:46:03;;;;;;;6.93;4.10;;;;;;;;;;5057810;28;20114;-75
2023/06/08 13:48:29;;;;;;;6.43;4.03;;;;;;;;;;5039764;28;20033;-75
2023/06/08 13:50:54;;;;;;;6.27;3.67;;;;;;;;;;5057247;28;20494;-76
2023/06/08 13:53:20;;;;;;;7.07;4.10;;;;;;;;;;5057232;28;20274;-74
2023/06/08 13:55:46;;;;;;;10.35;3.65;;;;;;;;;;5040110;28;20020;-74
2023/06/08 13:58:11;;;;;;;6.97;3.65;;;;;;;;;;5057323;28;20039;-75
2023/06/08 14:00:37;;;;;;;8.75;3.38;;;;;;;;;;5058193;28;20120;-75
2023/06/08 14:03:02;;;;;;;8.88;3.67;;;;;;;;;;5057368;28;20079;-75
2023/06/08 14:05:28;;;;;;;7.93;3.83;;;;;;;;;;5056617;28;20021;-74
2023/06/08 14:07:53;;;;;;;4.60;3.55;;;;;;;;;;5039157;28;20490;-75
2023/06/08 14:10:19;;;;;;;6.82;3.67;;;;;;;;;;5056376;28;20033;-74
2023/06/08 14:12:45;;;;;;;8.90;4.05;;;;;;;;;;5056764;28;20032;-76
2023/06/08 14:15:10;;;;;;;5.75;3.83;;;;;;;;;;5056337;28;20175;-75
2023/06/08 14:17:35;;;;;;;11.85;3.88;;;;;;;;;;5053902;28;20543;-74
2023/06/08 14:20:01;;;;;;;6.47;3.77;;;;;;;;;;5054193;28;20035;-75
2023/06/08 14:22:26;;;;;;;15.73;4.03;;;;;;;;;;5053462;28;20341;-75
2023/06/08 14:24:51;;;;;;;6.47;4.00;;;;;;;;;;5052967;28;20036;-77
2023/06/08 14:27:16;;;;;;;8.77;4.53;;;;;;;;;;5053488;28;20261;-75